ADDS METAR Data INFO
IDs: Format: Raw Decoded Include TAF

Data at: 0252 UTC 21 Oct 2017

KOPL 210235Z AUTO 11006KT 23/21 A3004 RMK AO2 T02250205 PWINO
KOPL 210215Z AUTO 11007KT 23/21 A3003 RMK AO2 T02250205 PWINO
KOPL 210155Z AUTO 10005KT 23/21 A3003 RMK AO2 T02250205 PWINO
KOPL 210135Z AUTO 11004KT 23/21 A3003 RMK AO2 LTG DSNT S T02250205 PWINO
KOPL 210120Z AUTO 10004KT 23/21 A3002 RMK AO2 T02250205 PWINO
KOPL 210055Z AUTO 00000KT 22/20 A3003 RMK AO2 LTG DSNT S T02200203 PWINO
KOPL 210040Z AUTO 00000KT 22/20 A3003 RMK AO2 T02200202 PWINO
KOPL 210010Z AUTO 00000KT 22/20 A3003 RMK AO2 LTG DSNT S T02160202 PWINO
KOPL 202350Z AUTO 00000KT 22/20 A3003 RMK AO2 T02190200 10257 20219 PWINO
KOPL 202335Z AUTO 00000KT CLR 23/20 A3004 RMK AO2 T02260200 PWINO
KOPL 202315Z AUTO 00000KT CLR 23/20 A3004 RMK AO2 T02300200 PWINO
KOPL 202255Z AUTO 00000KT CLR 23/20 A3002 RMK AO2 LTG DSNT S T02330200 PWINO
KOPL 202235Z AUTO 08003KT CLR 24/20 A3001 RMK AO2 LTG DSNT S AND SW T02350200 PWINO
KOPL 202220Z AUTO 00000KT CLR 24/20 A3001 RMK AO2 LTG DSNT S AND SW T02360198 PWINO
KOPL 202200Z AUTO 06005KT SCT060 24/20 A3001 RMK AO2 LTG DSNT SW T02370199 PWINO
KOPL 202130Z AUTO 00000KT CLR 24/20 A3004 RMK AO2 LTG DSNT SW T02420195 PWINO
KOPL 202110Z AUTO 00000KT CLR 25/20 A3004 RMK AO2 LTG DSNT S T02450195 PWINO
KOPL 202055Z AUTO 11003KT VCTS CLR 25/19 A3004 RMK AO2 LTG DSNT SW T02460192
KOPL 202035Z AUTO 00000KT CLR 25/19 A3004 RMK AO2 LTG DSNT S T02460191 PWINO
KOPL 202020Z AUTO 09006KT CLR 25/19 A3004 RMK AO2 LTG DSNT S T02470190 PWINO
KOPL 201950Z AUTO 09006KT CLR 25/19 A3005 RMK AO2 T02500187 PWINO
KOPL 201930Z AUTO 10004KT CLR 25/19 A3005 RMK AO2 LTG DSNT S T02500186 PWINO
KOPL 201915Z AUTO 11003KT CLR 25/19 A3006 RMK AO2 LTG DSNT S T02510186 PWINO
KOPL 201855Z AUTO 11005KT CLR 25/18 A3006 RMK AO2 T02520181 PWINO
KOPL 201835Z AUTO 14007KT CLR 26/18 A3008 RMK AO2 LTG DSNT S T02550182 PWINO
KOPL 201820Z AUTO 12005KT CLR 26/19 A3009 RMK AO2 LTG DSNT SW T02560185 PWINO
KOPL 201750Z AUTO 12003KT CLR 25/18 A3011 RMK AO2 T02480182 10248 20177 PWINO
KOPL 201730Z AUTO 12004KT CLR 25/18 A3011 RMK AO2 LTG DSNT S T02450180 PWINO
KOPL 201710Z AUTO 09004KT CLR 24/18 A3009 RMK AO2 T02420179 PWINO
KOPL 201630Z AUTO 10006KT CLR 24/17 A3012 RMK AO2 LTG DSNT S T02350173 PWINO
KOPL 201610Z AUTO 09005KT CLR 23/17 A3014 RMK AO2 LTG DSNT S T02300170 PWINO
KOPL 201555Z AUTO 09003KT CLR 22/17 A3015 RMK AO2 LTG DSNT S AND SW T02230171 PWINO
KOPL 201535Z AUTO 10006KT CLR 22/17 A3015 RMK AO2 LTG DSNT S AND SW T02150170 PWINO
KOPL 201515Z AUTO 10004KT CLR 21/17 A3016 RMK AO2 T02050171 PWINO
KOPL 201500Z AUTO 09004KT CLR 20/17 A3015 RMK AO2 T01990172 PWINO
KOPL 201430Z AUTO 09004KT 19/17 A3016 RMK AO2 LTG DSNT SW T01910170 PWINO
KOPL 201410Z AUTO 08003KT 19/17 A3016 RMK AO2 LTG DSNT S T01870171 PWINO
KOPL 201355Z AUTO 10004KT 19/17 A3016 RMK AO2 LTG DSNT SW T01850170 PWINO
KOPL 201335Z AUTO 09004KT 18/17 A3015 RMK AO2 LTG DSNT S AND SW T01820171 PWINO
KOPL 201320Z AUTO 09004KT 18/17 A3014 RMK AO2 LTG DSNT SW T01810172 PWINO
KOPL 201300Z AUTO 09004KT 18/17 A3014 RMK AO2 LTG DSNT S AND SW T01780173 PWINO
KOPL 201230Z AUTO 00000KT 18/17 A3014 RMK AO2 LTG DSNT SW T01780173 PWINO
KOPL 201210Z AUTO 09004KT 18/18 A3013 RMK AO2 LTG DSNT SW T01790175 PWINO
KOPL 201155Z AUTO 09003KT 18/18 A3013 RMK AO2 LTG DSNT S AND SW T01800176 10190 20175 PWINO
KOPL 201135Z AUTO 08003KT 18/18 A3013 RMK AO2 LTG DSNT S T01800179 PWINO
KOPL 201120Z AUTO 08003KT 18/18 A3012 RMK AO2 LTG DSNT S AND SW T01800180 PWINO
KOPL 201050Z AUTO 09005KT 18/18 A3012 RMK AO2 T01800180 PWINO
KOPL 201035Z AUTO 09005KT 18/18 A3012 RMK AO2 T01800178 PWINO
KOPL 201015Z AUTO 08005KT 18/18 A3011 RMK AO2 LTG DSNT S T01790176 PWINO
KOPL 200955Z AUTO 09004KT 18/18 A3012 RMK AO2 T01770176 PWINO
KOPL 200935Z AUTO 08003KT 18/18 A3012 RMK AO2 LTG DSNT SW T01750175 PWINO
KOPL 200915Z AUTO 00000KT 18/18 A3012 RMK AO2 LTG DSNT S T01760175 PWINO
KOPL 200855Z AUTO 00000KT 18/18 A3012 RMK AO2 T01770176 PWINO
KOPL 200835Z AUTO 00000KT 18/18 A3012 RMK AO2 T01780177 PWINO
KOPL 200815Z AUTO 00000KT 18/18 A3012 RMK AO2 LTG DSNT S T01800178 PWINO
KOPL 200755Z AUTO 11003KT 18/18 A3012 RMK AO2 T01800178 PWINO
KOPL 200735Z AUTO 08003KT 18/18 A3012 RMK AO2 T01810178 PWINO
KOPL 200715Z AUTO 09003KT 18/18 A3013 RMK AO2 T01830180 PWINO
KOPL 200655Z AUTO 09003KT 19/18 A3014 RMK AO2 T01860181 PWINO
KOPL 200635Z AUTO 10005KT 19/18 A3014 RMK AO2 T01880181 PWINO
KOPL 200615Z AUTO 11005KT 19/18 A3014 RMK AO2 T01900181 PWINO
KOPL 200555Z AUTO 10004KT 19/18 A3014 RMK AO2 T01870177 10211 20181 402760120 PWINO
KOPL 200535Z AUTO 09004KT 19/18 A3015 RMK AO2 T01880175 PWINO
KOPL 200515Z AUTO 09005KT 19/18 A3015 RMK AO2 T01910175 PWINO
KOPL 200455Z AUTO 08004KT 19/17 A3015 RMK AO2 T01900172 PWINO
KOPL 200435Z AUTO 10003KT 19/17 A3015 RMK AO2 T01910171 PWINO
KOPL 200415Z AUTO 10003KT 19/17 A3015 RMK AO2 T01910171 PWINO
KOPL 200355Z AUTO 08003KT 19/17 A3015 RMK AO2 T01940170 PWINO
KOPL 200335Z AUTO 09004KT 19/17 A3015 RMK AO2 T01930170 PWINO
KOPL 200315Z AUTO 00000KT 18/16 A3015 RMK AO2 T01830164 PWINO
KOPL 200255Z AUTO 00000KT CLR 20/17 A3015 RMK AO2 T01960166 PWINO
KOPL 200235Z AUTO 05003KT CLR 20/17 A3014 RMK AO2 LTG DSNT SW T02000167 PWINO
KOPL 200215Z AUTO 06003KT CLR 20/17 A3013 RMK AO2 T02020167 PWINO
KOPL 200155Z AUTO 05004KT CLR 20/17 A3013 RMK AO2 T02000168 PWINO
KOPL 200135Z AUTO 05003KT CLR 20/17 A3012 RMK AO2 T01980171 PWINO
KOPL 200115Z AUTO 05003KT CLR 20/17 A3013 RMK AO2 T02000171 PWINO
KOPL 200055Z AUTO 05003KT CLR 21/17 A3013 RMK AO2 LTG DSNT S T02050172 PWINO
KOPL 200035Z AUTO 05003KT CLR 20/17 A3013 RMK AO2 T02040173 PWINO
KOPL 200015Z AUTO 04003KT CLR 21/18 A3012 RMK AO2 T02060176 PWINO
KOPL 192355Z AUTO 00000KT CLR 21/18 A3012 RMK AO2 T02130176 10276 20213 PWINO
KOPL 192335Z AUTO 00000KT CLR 23/17 A3011 RMK AO2 T02270171 PWINO
KOPL 192315Z AUTO 03003KT CLR 24/17 A3011 RMK AO2 T02370171 PWINO
KOPL 192255Z AUTO 05003KT CLR 25/16 A3011 RMK AO2 T02500164 PWINO
KOPL 192235Z AUTO 05003KT CLR 26/16 A3011 RMK AO2 T02580161 PWINO
KOPL 192215Z AUTO 07006KT CLR 27/16 A3011 RMK AO2 T02650160 PWINO
KOPL 192155Z AUTO 12004KT CLR 27/16 A3011 RMK AO2 T02710156 PWINO
KOPL 192135Z AUTO 08005KT CLR 27/16 A3011 RMK AO2 T02700159 PWINO
KOPL 192115Z AUTO 07005KT CLR 27/16 A3012 RMK AO2 T02680155 PWINO
KOPL 192055Z AUTO 10003KT CLR 28/16 A3012 RMK AO2 T02750157 PWINO
KOPL 192035Z AUTO 09005KT CLR 27/15 A3012 RMK AO2 T02730152 PWINO
KOPL 192015Z AUTO 09008KT SCT044 28/16 A3012 RMK AO2 T02750155 PWINO
KOPL 191955Z AUTO 00000KT CLR 27/16 A3013 RMK AO2 T02720155 PWINO
KOPL 191935Z AUTO 09005KT CLR 27/15 A3013 RMK AO2 T02710151 PWINO
KOPL 191915Z AUTO 12004KT CLR 26/15 A3014 RMK AO2 T02620151 PWINO
KOPL 191855Z AUTO 08004KT SCT038 27/15 A3014 RMK AO2 T02660154 PWINO
KOPL 191835Z AUTO 08003KT SCT038 26/15 A3016 RMK AO2 T02640151 PWINO
KOPL 191815Z AUTO 08006KT SCT038 26/16 A3017 RMK AO2 T02610155 PWINO
KOPL 191755Z AUTO 08005KT SCT036 25/15 A3018 RMK AO2 T02520154 10258 20125 PWINO
KOPL 191735Z AUTO 00000KT SCT035 26/16 A3019 RMK AO2 T02580157 PWINO
KOPL 191715Z AUTO 06004KT CLR 25/15 A3019 RMK AO2 T02500154 PWINO
KOPL 191655Z AUTO 06005KT CLR 25/15 A3020 RMK AO2 T02480151 PWINO
KOPL 191635Z AUTO 06007KT CLR 24/15 A3021 RMK AO2 T02420150 PWINO
KOPL 191615Z AUTO 09006KT CLR 24/15 A3021 RMK AO2 T02370148 PWINO
KOPL 191555Z AUTO 07006KT CLR 23/15 A3022 RMK AO2 T02260146 PWINO
KOPL 191535Z AUTO 08005KT CLR 22/14 A3022 RMK AO2 T02200142 PWINO
KOPL 191515Z AUTO 09006KT CLR 21/14 A3021 RMK AO2 T02050141 PWINO